Startpagina
METAR-TAF:

METAR-TAF

Vliegvelden :

Internationale Luchthaven Baghdad

Bagdad, Irak

breedte: 33-15-45N, lengte: 44-14-04E, hoogte: 35 m

Actueel weer

Dit bericht is 41 minuten geleden gemaakt, om 11:00 UTC
Wind 6 kt uit het westzuidwesten
Temperatuur 21°C
Vochtigheid 78%
Druk 1018 hPa
Zicht: 4000 m
Verspreide wolken op 3500 ft

METAR: ORBI 161100Z 25006KT 4000 SCT035 21/17 Q1018 NOSIG

Tijdstip: 14:41 (11:41 UTC)

Verwachting

Dit bericht is 41 minuten geleden gemaakt, om 11:00 UTC
Verwachting geldig van 16 om 12 UTC tot 17 om 12 UTC
Wind 2 kt uit variabele richting
Zicht: 4000 m
Gebroken wolken op 4000 ft
nevel
Wijzigt naar
van 16 om 15 UTC tot 16 om 17 UTC
Zicht: 7000 m
Wijzigt naar
van 17 om 01 UTC tot 17 om 03 UTC
Zicht: 2000 m
nevel
Kans 40%
van 17 om 03 UTC tot 17 om 07 UTC
Zicht: 0500 m
mist
Wijzigt naar
van 17 om 07 UTC tot 17 om 09 UTC
Zicht: 5000 m

TAF: ORBI 161100Z 1612/1712 VRB02KT 4000 BR BKN040 BECMG 1615/1617 7000 NSC BECMG 1701/1703 2000 BR PROB40 1703/1707 0500 FG BECMG 1707/1709 5000

Waarnemingen en weersverwachtingen van meer dan 4000 vliegvelden (METAR en TAF).

De beschikbare stations zijn de gele en rode punten op de kaart.

Ga met uw muis naar het station om de naam te zien.

Klik dan om waarnemingen en weersverwachtingen te zien.

kaart wijzigen: klik op de groene knoppen met een zwart kruis om in te zoomen, op de groene knop met een streepje om uit te zoomen of op de groene pijlen voor aangrenzende kaarten.


METAR-TAF: